createdAt,value
2018-04-26T16:54:11.387Z,24.50
2018-04-26T16:56:38.945Z,23.60
2018-04-26T16:59:06.499Z,24.70
2018-04-26T17:01:33.993Z,25.60
2018-04-26T17:04:01.516Z,25.60
2018-04-26T17:06:29.019Z,23.90
2018-04-26T17:08:56.562Z,21.90
2018-04-26T17:11:24.571Z,21.20
2018-04-26T17:13:52.100Z,21.50
2018-04-26T17:16:19.614Z,21.80
2018-04-26T17:18:47.539Z,21.90
2018-04-26T17:21:15.044Z,21.90
2018-04-26T17:23:42.583Z,21.60
2018-04-26T17:26:10.090Z,21.20
2018-04-26T17:28:37.586Z,20.80
2018-04-26T17:31:05.108Z,20.60
2018-04-26T17:33:32.678Z,20.70
2018-04-26T17:36:00.229Z,21.50
2018-04-26T17:38:27.834Z,21.30
2018-04-26T17:40:55.374Z,20.60
2018-04-26T17:43:22.897Z,19.50
2018-04-26T17:45:50.418Z,19.00
2018-04-26T17:48:17.948Z,18.60
2018-04-26T17:50:45.470Z,18.30
2018-04-26T17:53:12.992Z,17.70
2018-04-26T17:55:40.916Z,16.50
2018-04-26T17:58:08.508Z,16.50
2018-04-26T18:00:35.999Z,15.90
2018-04-26T18:03:03.521Z,15.50
2018-04-26T18:05:31.451Z,14.80
2018-04-26T18:07:59.034Z,14.80
2018-04-26T18:10:26.627Z,14.50
2018-04-26T18:12:54.207Z,14.30
2018-04-26T18:15:21.782Z,14.20
2018-04-26T18:17:49.356Z,14.00
2018-04-26T18:20:16.952Z,13.80
2018-04-26T18:22:44.596Z,13.60
2018-04-26T18:25:12.255Z,13.40
2018-04-26T18:27:39.768Z,13.30
2018-04-26T18:30:07.348Z,13.20
2018-04-26T18:32:34.969Z,13.10
2018-04-26T18:35:02.540Z,13.00
2018-04-26T18:37:30.117Z,12.90
2018-04-26T18:39:57.667Z,12.90
2018-04-26T18:42:25.294Z,12.90
2018-04-26T18:44:52.902Z,12.90
2018-04-26T18:47:20.452Z,12.80
2018-04-26T18:49:48.036Z,12.70
2018-04-26T18:52:15.617Z,12.60
2018-04-26T18:54:43.212Z,12.40
2018-04-26T18:57:10.816Z,12.40
2018-04-26T18:59:38.408Z,12.30
2018-04-26T19:02:05.991Z,12.30
2018-04-26T19:04:33.538Z,12.40
2018-04-26T19:07:01.120Z,12.40
2018-04-26T19:09:28.701Z,12.40
2018-04-26T19:11:56.315Z,12.40
2018-04-26T19:14:23.886Z,12.30
2018-04-26T19:16:51.451Z,12.30
2018-04-26T19:19:19.014Z,12.30
2018-04-26T19:21:46.587Z,12.20
2018-04-26T19:24:14.138Z,12.10
2018-04-26T19:26:41.788Z,12.00
2018-04-26T19:29:09.336Z,12.00
2018-04-26T19:31:37.103Z,11.90
2018-04-26T19:34:04.964Z,11.90
2018-04-26T19:36:32.512Z,11.80
2018-04-26T19:39:00.289Z,11.70
2018-04-26T19:41:27.859Z,11.50
2018-04-26T19:43:55.999Z,11.30
2018-04-26T19:46:23.715Z,11.00
2018-04-26T19:48:51.944Z,10.80
2018-04-26T19:51:19.802Z,10.60
2018-04-26T19:53:47.650Z,10.50
2018-04-26T19:56:15.295Z,10.30
2018-04-26T19:58:42.926Z,10.20
2018-04-26T20:01:11.366Z,10.10
2018-04-26T20:03:38.990Z,10.00
2018-04-26T20:06:07.398Z,9.90
2018-04-26T20:08:35.210Z,9.90
2018-04-26T20:11:02.928Z,9.90
2018-04-26T20:13:30.523Z,9.90
2018-04-26T20:15:58.078Z,9.90
2018-04-26T20:18:25.709Z,9.80
2018-04-26T20:20:53.587Z,9.70
2018-04-26T20:23:21.257Z,9.70
2018-04-26T20:25:49.608Z,9.40
2018-04-26T20:28:17.282Z,9.40
2018-04-26T20:30:44.847Z,9.30
2018-04-26T20:33:12.692Z,9.20
2018-04-26T20:35:40.606Z,9.10
2018-04-26T20:38:08.400Z,9.00
2018-04-26T20:40:36.025Z,8.90
2018-04-26T20:43:03.609Z,8.90
2018-04-26T20:45:31.222Z,8.80
2018-04-26T20:47:58.778Z,8.70
2018-04-26T20:50:26.488Z,8.70
2018-04-26T20:52:53.998Z,8.60
2018-04-26T20:55:21.772Z,8.50
2018-04-26T20:57:49.313Z,8.50
2018-04-26T21:00:16.903Z,8.40
2018-04-26T21:02:44.474Z,8.20
2018-04-26T21:05:12.492Z,8.00
2018-04-26T21:07:40.072Z,8.00
2018-04-26T21:10:07.708Z,8.00
2018-04-26T21:12:35.261Z,7.90
2018-04-26T21:15:02.908Z,7.90
2018-04-26T21:17:30.479Z,7.90
2018-04-26T21:19:58.146Z,7.80
2018-04-26T21:22:25.741Z,7.80
2018-04-26T21:24:53.364Z,7.80
2018-04-26T21:27:21.134Z,7.80
2018-04-26T21:29:48.719Z,7.70
2018-04-26T21:32:16.274Z,7.70
2018-04-26T21:34:43.942Z,7.70
2018-04-26T21:37:11.612Z,7.70
2018-04-26T21:39:39.265Z,7.70
2018-04-26T21:42:06.845Z,7.80
2018-04-26T21:44:34.593Z,7.80
2018-04-26T21:47:02.410Z,7.80
2018-04-26T21:49:29.474Z,7.80
2018-04-26T21:52:02.864Z,7.70
2018-04-26T21:54:36.052Z,7.70
2018-04-26T21:57:09.188Z,7.70
2018-04-26T21:59:42.380Z,7.60
2018-04-26T22:02:15.786Z,7.60
2018-04-26T22:04:50.963Z,7.50
2018-04-26T22:07:18.679Z,7.50
2018-04-26T22:09:46.254Z,7.40
2018-04-26T22:12:13.842Z,7.40
2018-04-26T22:14:41.409Z,7.40
2018-04-26T22:17:09.313Z,7.30
2018-04-26T22:19:36.928Z,7.30
2018-04-26T22:22:04.752Z,7.30
2018-04-26T22:24:32.477Z,7.20
2018-04-26T22:27:00.100Z,7.20
2018-04-26T22:29:27.674Z,7.20
2018-04-26T22:31:55.238Z,7.20
2018-04-26T22:34:22.854Z,7.10
2018-04-26T22:36:50.548Z,7.00
2018-04-26T22:39:18.290Z,6.90
2018-04-26T22:41:45.888Z,6.90
2018-04-26T22:44:13.477Z,6.90
2018-04-26T22:46:41.091Z,6.90
2018-04-26T22:49:08.684Z,6.80
2018-04-26T22:51:36.331Z,6.80
2018-04-26T22:54:03.968Z,6.80
2018-04-26T22:56:31.645Z,6.70
2018-04-26T22:58:59.324Z,6.70
2018-04-26T23:01:26.957Z,6.70
2018-04-26T23:03:54.618Z,6.70
2018-04-26T23:06:22.168Z,6.70
2018-04-26T23:08:49.735Z,6.70
2018-04-26T23:11:17.364Z,6.60
2018-04-26T23:13:44.999Z,6.60
2018-04-26T23:16:12.968Z,6.50
2018-04-26T23:18:40.540Z,6.50
2018-04-26T23:21:08.155Z,6.50
2018-04-26T23:23:36.391Z,6.40
2018-04-26T23:26:04.141Z,6.40
2018-04-26T23:28:32.513Z,6.40
2018-04-26T23:31:00.111Z,6.30
2018-04-26T23:33:27.700Z,6.20
2018-04-26T23:35:55.306Z,6.10
2018-04-26T23:38:22.979Z,6.00
2018-04-26T23:40:50.538Z,6.00
2018-04-26T23:43:18.140Z,5.90
2018-04-26T23:45:45.792Z,5.90
2018-04-26T23:48:13.864Z,5.80
2018-04-26T23:50:42.664Z,5.90
2018-04-26T23:53:10.245Z,5.80
2018-04-26T23:55:37.882Z,5.80
2018-04-26T23:58:05.594Z,5.80
